sensor_id;sensor_type;location;lat;lon;timestamp;temperature;humidity
10312;DHT22;5201;48.776;9.128;2024-02-15T00:01:39;12.10;99.90
10312;DHT22;5201;48.776;9.128;2024-02-15T00:04:04;11.90;99.90
10312;DHT22;5201;48.776;9.128;2024-02-15T00:06:31;12.20;99.90
10312;DHT22;5201;48.776;9.128;2024-02-15T00:08:56;12.00;99.90
10312;DHT22;5201;48.776;9.128;2024-02-15T00:11:22;12.00;99.90
10312;DHT22;5201;48.776;9.128;2024-02-15T00:13:48;12.00;99.90
10312;DHT22;5201;48.776;9.128;2024-02-15T00:16:14;11.90;99.90
10312;DHT22;5201;48.776;9.128;2024-02-15T00:18:43;12.00;99.90
10312;DHT22;5201;48.776;9.128;2024-02-15T00:21:09;12.40;99.90
10312;DHT22;5201;48.776;9.128;2024-02-15T00:23:36;12.00;99.90
10312;DHT22;5201;48.776;9.128;2024-02-15T00:26:02;11.90;99.90
10312;DHT22;5201;48.776;9.128;2024-02-15T00:28:27;11.80;99.90
10312;DHT22;5201;48.776;9.128;2024-02-15T00:30:53;11.80;99.90
10312;DHT22;5201;48.776;9.128;2024-02-15T00:33:19;11.70;99.90
10312;DHT22;5201;48.776;9.128;2024-02-15T00:35:44;11.80;99.90
10312;DHT22;5201;48.776;9.128;2024-02-15T00:38:10;12.20;99.90
10312;DHT22;5201;48.776;9.128;2024-02-15T00:40:35;11.70;99.90
10312;DHT22;5201;48.776;9.128;2024-02-15T00:43:01;11.30;99.90
10312;DHT22;5201;48.776;9.128;2024-02-15T00:45:27;11.70;99.90
10312;DHT22;5201;48.776;9.128;2024-02-15T00:47:52;11.60;99.90
10312;DHT22;5201;48.776;9.128;2024-02-15T00:50:19;11.50;99.90
10312;DHT22;5201;48.776;9.128;2024-02-15T00:52:45;11.50;99.90
10312;DHT22;5201;48.776;9.128;2024-02-15T00:55:10;11.50;99.90
10312;DHT22;5201;48.776;9.128;2024-02-15T00:57:36;11.50;99.90
10312;DHT22;5201;48.776;9.128;2024-02-15T01:00:03;11.50;99.90
10312;DHT22;5201;48.776;9.128;2024-02-15T01:02:29;11.50;99.90
10312;DHT22;5201;48.776;9.128;2024-02-15T01:04:55;11.50;99.90
10312;DHT22;5201;48.776;9.128;2024-02-15T01:07:22;11.50;99.90
10312;DHT22;5201;48.776;9.128;2024-02-15T01:09:52;11.50;99.90
10312;DHT22;5201;48.776;9.128;2024-02-15T01:12:18;11.60;99.90
10312;DHT22;5201;48.776;9.128;2024-02-15T01:14:44;11.60;99.90
10312;DHT22;5201;48.776;9.128;2024-02-15T01:17:09;11.50;99.90
10312;DHT22;5201;48.776;9.128;2024-02-15T01:19:35;11.50;99.90
10312;DHT22;5201;48.776;9.128;2024-02-15T01:22:00;11.40;99.90
10312;DHT22;5201;48.776;9.128;2024-02-15T01:24:26;11.90;99.90
10312;DHT22;5201;48.776;9.128;2024-02-15T01:26:52;11.30;99.90
10312;DHT22;5201;48.776;9.128;2024-02-15T01:29:18;11.30;99.90
10312;DHT22;5201;48.776;9.128;2024-02-15T01:31:44;11.40;99.90
10312;DHT22;5201;48.776;9.128;2024-02-15T01:34:10;11.40;99.90
10312;DHT22;5201;48.776;9.128;2024-02-15T01:36:35;11.40;99.90
10312;DHT22;5201;48.776;9.128;2024-02-15T01:39:01;11.30;99.90
10312;DHT22;5201;48.776;9.128;2024-02-15T01:41:27;11.20;99.90
10312;DHT22;5201;48.776;9.128;2024-02-15T01:43:52;11.60;99.90
10312;DHT22;5201;48.776;9.128;2024-02-15T01:46:19;11.60;99.90
10312;DHT22;5201;48.776;9.128;2024-02-15T01:48:46;11.30;99.90
10312;DHT22;5201;48.776;9.128;2024-02-15T01:51:12;11.30;99.90
10312;DHT22;5201;48.776;9.128;2024-02-15T01:53:41;11.30;99.90
10312;DHT22;5201;48.776;9.128;2024-02-15T01:56:07;11.20;99.90
10312;DHT22;5201;48.776;9.128;2024-02-15T01:58:33;11.20;99.90
10312;DHT22;5201;48.776;9.128;2024-02-15T02:01:00;11.20;99.90
10312;DHT22;5201;48.776;9.128;2024-02-15T02:03:29;11.10;99.90
10312;DHT22;5201;48.776;9.128;2024-02-15T02:05:55;11.00;99.90
10312;DHT22;5201;48.776;9.128;2024-02-15T02:08:21;11.00;99.90
10312;DHT22;5201;48.776;9.128;2024-02-15T02:10:47;11.00;99.90
10312;DHT22;5201;48.776;9.128;2024-02-15T02:13:13;10.90;99.90
10312;DHT22;5201;48.776;9.128;2024-02-15T02:15:40;11.00;99.90
10312;DHT22;5201;48.776;9.128;2024-02-15T02:18:06;10.90;99.90
10312;DHT22;5201;48.776;9.128;2024-02-15T02:20:32;10.80;99.90
10312;DHT22;5201;48.776;9.128;2024-02-15T02:23:07;10.80;99.90
10312;DHT22;5201;48.776;9.128;2024-02-15T02:25:33;10.90;99.90
10312;DHT22;5201;48.776;9.128;2024-02-15T02:28:00;10.80;99.90
10312;DHT22;5201;48.776;9.128;2024-02-15T02:30:26;10.70;99.90
10312;DHT22;5201;48.776;9.128;2024-02-15T02:32:55;10.80;99.90
10312;DHT22;5201;48.776;9.128;2024-02-15T02:35:22;10.60;99.90
10312;DHT22;5201;48.776;9.128;2024-02-15T02:37:48;10.60;99.90
10312;DHT22;5201;48.776;9.128;2024-02-15T02:40:13;10.50;99.90
10312;DHT22;5201;48.776;9.128;2024-02-15T02:42:48;10.60;99.90
10312;DHT22;5201;48.776;9.128;2024-02-15T02:45:14;10.80;99.90
10312;DHT22;5201;48.776;9.128;2024-02-15T02:47:39;10.60;99.90
10312;DHT22;5201;48.776;9.128;2024-02-15T02:50:06;10.40;99.90
10312;DHT22;5201;48.776;9.128;2024-02-15T02:52:31;10.50;99.90
10312;DHT22;5201;48.776;9.128;2024-02-15T02:54:57;10.50;99.90
10312;DHT22;5201;48.776;9.128;2024-02-15T02:57:23;10.40;99.90
10312;DHT22;5201;48.776;9.128;2024-02-15T02:59:48;10.50;99.90
10312;DHT22;5201;48.776;9.128;2024-02-15T03:02:14;10.40;99.90
10312;DHT22;5201;48.776;9.128;2024-02-15T03:04:40;10.40;99.90
10312;DHT22;5201;48.776;9.128;2024-02-15T03:07:06;10.50;99.90
10312;DHT22;5201;48.776;9.128;2024-02-15T03:09:31;10.60;99.90
10312;DHT22;5201;48.776;9.128;2024-02-15T03:11:59;10.40;99.90
10312;DHT22;5201;48.776;9.128;2024-02-15T03:14:26;10.30;99.90
10312;DHT22;5201;48.776;9.128;2024-02-15T03:16:52;10.30;99.90
10312;DHT22;5201;48.776;9.128;2024-02-15T03:19:17;10.30;99.90
10312;DHT22;5201;48.776;9.128;2024-02-15T03:21:43;10.40;99.90
10312;DHT22;5201;48.776;9.128;2024-02-15T03:24:12;10.40;99.90
10312;DHT22;5201;48.776;9.128;2024-02-15T03:26:37;10.50;99.90
10312;DHT22;5201;48.776;9.128;2024-02-15T03:29:04;10.60;99.90
10312;DHT22;5201;48.776;9.128;2024-02-15T03:31:29;10.60;99.90
10312;DHT22;5201;48.776;9.128;2024-02-15T03:33:58;10.80;99.90
10312;DHT22;5201;48.776;9.128;2024-02-15T03:36:24;10.50;99.90
10312;DHT22;5201;48.776;9.128;2024-02-15T03:38:50;10.60;99.90
10312;DHT22;5201;48.776;9.128;2024-02-15T03:41:19;10.50;99.90
10312;DHT22;5201;48.776;9.128;2024-02-15T03:43:45;10.50;99.90
10312;DHT22;5201;48.776;9.128;2024-02-15T03:46:12;10.60;99.90
10312;DHT22;5201;48.776;9.128;2024-02-15T03:48:38;10.60;99.90
10312;DHT22;5201;48.776;9.128;2024-02-15T03:51:04;10.80;99.90
10312;DHT22;5201;48.776;9.128;2024-02-15T03:53:31;10.40;99.90
10312;DHT22;5201;48.776;9.128;2024-02-15T03:55:59;10.30;99.90
10312;DHT22;5201;48.776;9.128;2024-02-15T03:58:25;10.30;99.90
10312;DHT22;5201;48.776;9.128;2024-02-15T04:00:51;10.70;99.90
10312;DHT22;5201;48.776;9.128;2024-02-15T04:03:17;10.40;99.90
10312;DHT22;5201;48.776;9.128;2024-02-15T04:05:42;10.30;99.90
10312;DHT22;5201;48.776;9.128;2024-02-15T04:08:08;10.40;99.90
10312;DHT22;5201;48.776;9.128;2024-02-15T04:10:34;10.40;99.90
10312;DHT22;5201;48.776;9.128;2024-02-15T04:13:00;10.40;99.90
10312;DHT22;5201;48.776;9.128;2024-02-15T04:15:26;10.50;99.90
10312;DHT22;5201;48.776;9.128;2024-02-15T04:17:51;10.40;99.90
10312;DHT22;5201;48.776;9.128;2024-02-15T04:20:21;10.40;99.90
10312;DHT22;5201;48.776;9.128;2024-02-15T04:22:47;10.40;99.90
10312;DHT22;5201;48.776;9.128;2024-02-15T04:25:15;10.30;99.90
10312;DHT22;5201;48.776;9.128;2024-02-15T04:27:46;10.20;99.90
10312;DHT22;5201;48.776;9.128;2024-02-15T04:30:12;10.30;99.90
10312;DHT22;5201;48.776;9.128;2024-02-15T04:32:38;10.30;99.90
10312;DHT22;5201;48.776;9.128;2024-02-15T04:35:04;10.30;99.90
10312;DHT22;5201;48.776;9.128;2024-02-15T04:37:30;10.30;99.90
10312;DHT22;5201;48.776;9.128;2024-02-15T04:39:58;10.40;99.90
10312;DHT22;5201;48.776;9.128;2024-02-15T04:42:24;10.40;99.90
10312;DHT22;5201;48.776;9.128;2024-02-15T04:44:52;10.40;99.90
10312;DHT22;5201;48.776;9.128;2024-02-15T04:47:19;10.50;99.90
10312;DHT22;5201;48.776;9.128;2024-02-15T04:49:45;11.00;99.90
10312;DHT22;5201;48.776;9.128;2024-02-15T04:52:11;10.50;99.90
10312;DHT22;5201;48.776;9.128;2024-02-15T04:54:36;10.40;99.90
10312;DHT22;5201;48.776;9.128;2024-02-15T04:57:03;10.50;99.90
10312;DHT22;5201;48.776;9.128;2024-02-15T04:59:29;10.60;99.90
10312;DHT22;5201;48.776;9.128;2024-02-15T05:01:55;10.70;99.90
10312;DHT22;5201;48.776;9.128;2024-02-15T05:04:23;11.00;99.90
10312;DHT22;5201;48.776;9.128;2024-02-15T05:06:50;10.80;99.90
10312;DHT22;5201;48.776;9.128;2024-02-15T05:09:16;10.70;99.90
10312;DHT22;5201;48.776;9.128;2024-02-15T05:11:44;10.80;99.90
10312;DHT22;5201;48.776;9.128;2024-02-15T05:14:14;10.80;99.90
10312;DHT22;5201;48.776;9.128;2024-02-15T05:16:45;10.70;99.90
10312;DHT22;5201;48.776;9.128;2024-02-15T05:19:13;10.60;99.90
10312;DHT22;5201;48.776;9.128;2024-02-15T05:21:39;10.80;99.90
10312;DHT22;5201;48.776;9.128;2024-02-15T05:24:06;11.40;99.90
10312;DHT22;5201;48.776;9.128;2024-02-15T05:26:32;10.80;99.90
10312;DHT22;5201;48.776;9.128;2024-02-15T05:28:58;10.60;99.90
10312;DHT22;5201;48.776;9.128;2024-02-15T05:31:23;10.60;99.90
10312;DHT22;5201;48.776;9.128;2024-02-15T05:33:53;10.60;99.90
10312;DHT22;5201;48.776;9.128;2024-02-15T05:36:22;10.80;99.90
10312;DHT22;5201;48.776;9.128;2024-02-15T05:38:53;11.60;99.90
10312;DHT22;5201;48.776;9.128;2024-02-15T05:41:20;11.00;99.90
10312;DHT22;5201;48.776;9.128;2024-02-15T05:43:48;11.00;99.90
10312;DHT22;5201;48.776;9.128;2024-02-15T05:46:14;10.70;99.90
10312;DHT22;5201;48.776;9.128;2024-02-15T05:48:40;10.40;99.90
10312;DHT22;5201;48.776;9.128;2024-02-15T05:51:07;10.30;99.90
10312;DHT22;5201;48.776;9.128;2024-02-15T05:53:34;10.20;99.90
10312;DHT22;5201;48.776;9.128;2024-02-15T05:56:08;10.20;99.90
10312;DHT22;5201;48.776;9.128;2024-02-15T05:58:34;10.30;99.90
10312;DHT22;5201;48.776;9.128;2024-02-15T06:01:01;10.40;99.90
10312;DHT22;5201;48.776;9.128;2024-02-15T06:03:28;10.40;99.90
10312;DHT22;5201;48.776;9.128;2024-02-15T06:05:54;10.40;99.90
10312;DHT22;5201;48.776;9.128;2024-02-15T06:08:27;10.50;99.90
10312;DHT22;5201;48.776;9.128;2024-02-15T06:10:53;10.40;99.90
10312;DHT22;5201;48.776;9.128;2024-02-15T06:13:19;10.40;99.90
10312;DHT22;5201;48.776;9.128;2024-02-15T06:15:45;10.30;99.90
10312;DHT22;5201;48.776;9.128;2024-02-15T06:18:14;10.30;99.90
10312;DHT22;5201;48.776;9.128;2024-02-15T06:20:41;10.30;99.90
10312;DHT22;5201;48.776;9.128;2024-02-15T06:23:08;10.30;99.90
10312;DHT22;5201;48.776;9.128;2024-02-15T06:25:35;10.30;99.90
10312;DHT22;5201;48.776;9.128;2024-02-15T06:28:01;10.30;99.90
10312;DHT22;5201;48.776;9.128;2024-02-15T06:30:39;10.30;99.90
10312;DHT22;5201;48.776;9.128;2024-02-15T06:33:23;10.30;99.90
10312;DHT22;5201;48.776;9.128;2024-02-15T06:36:09;10.30;99.90
10312;DHT22;5201;48.776;9.128;2024-02-15T06:38:53;10.30;99.90
10312;DHT22;5201;48.776;9.128;2024-02-15T06:41:37;10.20;99.90
10312;DHT22;5201;48.776;9.128;2024-02-15T06:44:03;10.10;99.90
10312;DHT22;5201;48.776;9.128;2024-02-15T06:46:28;10.10;99.90
10312;DHT22;5201;48.776;9.128;2024-02-15T06:48:54;10.30;99.90
10312;DHT22;5201;48.776;9.128;2024-02-15T06:51:20;10.00;99.90
10312;DHT22;5201;48.776;9.128;2024-02-15T06:53:45;12.10;99.90
10312;DHT22;5201;48.776;9.128;2024-02-15T06:56:11;10.00;99.90
10312;DHT22;5201;48.776;9.128;2024-02-15T06:58:39;10.00;99.90
10312;DHT22;5201;48.776;9.128;2024-02-15T07:01:06;10.10;99.90
10312;DHT22;5201;48.776;9.128;2024-02-15T07:03:31;10.10;99.90
10312;DHT22;5201;48.776;9.128;2024-02-15T07:06:00;10.20;99.90
10312;DHT22;5201;48.776;9.128;2024-02-15T07:08:25;10.30;99.90
10312;DHT22;5201;48.776;9.128;2024-02-15T07:10:51;10.30;99.90
10312;DHT22;5201;48.776;9.128;2024-02-15T07:13:17;10.30;99.90
10312;DHT22;5201;48.776;9.128;2024-02-15T07:15:44;10.40;99.90
10312;DHT22;5201;48.776;9.128;2024-02-15T07:18:12;10.80;99.90
10312;DHT22;5201;48.776;9.128;2024-02-15T07:20:41;10.70;99.90
10312;DHT22;5201;48.776;9.128;2024-02-15T07:23:07;10.90;99.90
10312;DHT22;5201;48.776;9.128;2024-02-15T07:25:33;10.90;99.90
10312;DHT22;5201;48.776;9.128;2024-02-15T07:27:58;10.90;99.90
10312;DHT22;5201;48.776;9.128;2024-02-15T07:30:24;10.80;99.90
10312;DHT22;5201;48.776;9.128;2024-02-15T07:32:50;10.90;99.90
10312;DHT22;5201;48.776;9.128;2024-02-15T07:35:16;10.80;99.90
10312;DHT22;5201;48.776;9.128;2024-02-15T07:38:09;10.60;99.90
10312;DHT22;5201;48.776;9.128;2024-02-15T07:40:35;10.50;99.90
10312;DHT22;5201;48.776;9.128;2024-02-15T07:43:01;10.60;99.90
10312;DHT22;5201;48.776;9.128;2024-02-15T07:45:28;10.60;99.90
10312;DHT22;5201;48.776;9.128;2024-02-15T07:47:55;10.90;99.90
10312;DHT22;5201;48.776;9.128;2024-02-15T07:50:20;11.10;99.90
10312;DHT22;5201;48.776;9.128;2024-02-15T07:52:48;11.40;99.90
10312;DHT22;5201;48.776;9.128;2024-02-15T07:55:14;11.60;99.90
10312;DHT22;5201;48.776;9.128;2024-02-15T07:57:39;11.80;99.90
10312;DHT22;5201;48.776;9.128;2024-02-15T08:00:06;12.00;99.90
10312;DHT22;5201;48.776;9.128;2024-02-15T08:02:37;12.20;99.90
10312;DHT22;5201;48.776;9.128;2024-02-15T08:05:06;12.20;99.90
10312;DHT22;5201;48.776;9.128;2024-02-15T08:07:40;11.70;99.90
10312;DHT22;5201;48.776;9.128;2024-02-15T08:10:06;12.60;99.90
10312;DHT22;5201;48.776;9.128;2024-02-15T08:12:39;12.50;99.90
10312;DHT22;5201;48.776;9.128;2024-02-15T08:15:05;12.50;99.90
10312;DHT22;5201;48.776;9.128;2024-02-15T08:17:43;12.50;99.90
10312;DHT22;5201;48.776;9.128;2024-02-15T08:20:12;12.50;99.90
10312;DHT22;5201;48.776;9.128;2024-02-15T08:22:38;12.30;99.90
10312;DHT22;5201;48.776;9.128;2024-02-15T08:25:13;12.40;99.90
10312;DHT22;5201;48.776;9.128;2024-02-15T08:27:42;12.40;99.90
10312;DHT22;5201;48.776;9.128;2024-02-15T08:30:10;12.60;99.90
10312;DHT22;5201;48.776;9.128;2024-02-15T08:32:40;12.80;99.90
10312;DHT22;5201;48.776;9.128;2024-02-15T08:35:08;13.00;99.90
10312;DHT22;5201;48.776;9.128;2024-02-15T08:37:34;13.00;99.90
10312;DHT22;5201;48.776;9.128;2024-02-15T08:40:04;13.20;99.90
10312;DHT22;5201;48.776;9.128;2024-02-15T08:42:30;13.40;99.90
10312;DHT22;5201;48.776;9.128;2024-02-15T08:44:57;13.40;99.90
10312;DHT22;5201;48.776;9.128;2024-02-15T08:47:24;13.10;99.90
10312;DHT22;5201;48.776;9.128;2024-02-15T08:49:50;12.70;99.90
10312;DHT22;5201;48.776;9.128;2024-02-15T08:52:15;12.70;99.90
10312;DHT22;5201;48.776;9.128;2024-02-15T08:54:43;12.60;99.90
10312;DHT22;5201;48.776;9.128;2024-02-15T08:57:09;12.60;99.90
10312;DHT22;5201;48.776;9.128;2024-02-15T08:59:37;12.70;99.90
10312;DHT22;5201;48.776;9.128;2024-02-15T09:02:04;12.90;99.90
10312;DHT22;5201;48.776;9.128;2024-02-15T09:04:31;13.20;99.90
10312;DHT22;5201;48.776;9.128;2024-02-15T09:06:56;13.20;99.90
10312;DHT22;5201;48.776;9.128;2024-02-15T09:09:22;13.50;99.90
10312;DHT22;5201;48.776;9.128;2024-02-15T09:11:47;13.70;99.90
10312;DHT22;5201;48.776;9.128;2024-02-15T09:14:13;13.50;99.90
10312;DHT22;5201;48.776;9.128;2024-02-15T09:16:39;13.50;99.90
10312;DHT22;5201;48.776;9.128;2024-02-15T09:19:05;14.20;99.90
10312;DHT22;5201;48.776;9.128;2024-02-15T09:21:31;13.50;99.90
10312;DHT22;5201;48.776;9.128;2024-02-15T09:23:59;14.00;99.90
10312;DHT22;5201;48.776;9.128;2024-02-15T09:26:25;14.50;99.90
10312;DHT22;5201;48.776;9.128;2024-02-15T09:28:50;14.50;99.90
10312;DHT22;5201;48.776;9.128;2024-02-15T09:31:16;14.60;99.90
10312;DHT22;5201;48.776;9.128;2024-02-15T09:33:42;14.90;99.90
10312;DHT22;5201;48.776;9.128;2024-02-15T09:36:07;15.30;99.90
10312;DHT22;5201;48.776;9.128;2024-02-15T09:38:33;15.40;99.90
10312;DHT22;5201;48.776;9.128;2024-02-15T09:40:59;15.70;99.90
10312;DHT22;5201;48.776;9.128;2024-02-15T09:43:25;15.50;99.90
10312;DHT22;5201;48.776;9.128;2024-02-15T09:45:54;15.40;99.90
10312;DHT22;5201;48.776;9.128;2024-02-15T09:48:23;15.30;99.90
10312;DHT22;5201;48.776;9.128;2024-02-15T09:50:52;15.30;99.90
10312;DHT22;5201;48.776;9.128;2024-02-15T09:53:21;15.30;99.90
10312;DHT22;5201;48.776;9.128;2024-02-15T09:55:47;15.20;99.90
10312;DHT22;5201;48.776;9.128;2024-02-15T09:58:14;15.10;99.90
10312;DHT22;5201;48.776;9.128;2024-02-15T10:00:40;15.10;99.90
10312;DHT22;5201;48.776;9.128;2024-02-15T10:03:06;15.40;99.90
10312;DHT22;5201;48.776;9.128;2024-02-15T10:05:32;15.50;99.90
10312;DHT22;5201;48.776;9.128;2024-02-15T10:07:58;15.90;99.90
10312;DHT22;5201;48.776;9.128;2024-02-15T10:10:27;16.30;99.90
10312;DHT22;5201;48.776;9.128;2024-02-15T10:12:54;16.60;99.90
10312;DHT22;5201;48.776;9.128;2024-02-15T10:15:37;16.30;99.90
10312;DHT22;5201;48.776;9.128;2024-02-15T10:18:05;16.20;99.90
10312;DHT22;5201;48.776;9.128;2024-02-15T10:20:33;16.00;99.90
10312;DHT22;5201;48.776;9.128;2024-02-15T10:25:29;16.00;99.90
10312;DHT22;5201;48.776;9.128;2024-02-15T10:30:34;16.60;99.90
10312;DHT22;5201;48.776;9.128;2024-02-15T10:33:01;16.80;99.90
10312;DHT22;5201;48.776;9.128;2024-02-15T10:35:27;16.90;99.90
10312;DHT22;5201;48.776;9.128;2024-02-15T10:38:10;17.00;99.90
10312;DHT22;5201;48.776;9.128;2024-02-15T10:40:37;16.70;99.90
10312;DHT22;5201;48.776;9.128;2024-02-15T10:43:04;16.60;99.90
10312;DHT22;5201;48.776;9.128;2024-02-15T10:45:35;16.40;99.90
10312;DHT22;5201;48.776;9.128;2024-02-15T10:48:02;16.60;99.90
10312;DHT22;5201;48.776;9.128;2024-02-15T10:50:30;16.80;99.90
10312;DHT22;5201;48.776;9.128;2024-02-15T10:52:57;16.80;99.90
10312;DHT22;5201;48.776;9.128;2024-02-15T10:55:38;16.80;99.90
10312;DHT22;5201;48.776;9.128;2024-02-15T10:58:07;16.60;99.90
10312;DHT22;5201;48.776;9.128;2024-02-15T11:00:34;16.80;99.90
10312;DHT22;5201;48.776;9.128;2024-02-15T11:03:03;16.70;99.90
10312;DHT22;5201;48.776;9.128;2024-02-15T11:05:40;16.80;99.90
10312;DHT22;5201;48.776;9.128;2024-02-15T11:08:07;17.00;99.90
10312;DHT22;5201;48.776;9.128;2024-02-15T11:10:35;16.40;99.90
10312;DHT22;5201;48.776;9.128;2024-02-15T11:13:02;16.40;99.90
10312;DHT22;5201;48.776;9.128;2024-02-15T11:15:46;16.50;99.90
10312;DHT22;5201;48.776;9.128;2024-02-15T11:18:47;16.50;99.90
10312;DHT22;5201;48.776;9.128;2024-02-15T11:21:17;16.80;99.90
10312;DHT22;5201;48.776;9.128;2024-02-15T11:23:44;16.50;99.90
10312;DHT22;5201;48.776;9.128;2024-02-15T11:26:42;16.70;99.90
10312;DHT22;5201;48.776;9.128;2024-02-15T11:29:08;17.10;99.90
10312;DHT22;5201;48.776;9.128;2024-02-15T11:31:53;17.30;99.90
10312;DHT22;5201;48.776;9.128;2024-02-15T11:34:44;17.30;99.90
10312;DHT22;5201;48.776;9.128;2024-02-15T11:37:48;17.40;99.90
10312;DHT22;5201;48.776;9.128;2024-02-15T11:43:07;17.50;99.90
10312;DHT22;5201;48.776;9.128;2024-02-15T11:45:34;17.50;99.90
10312;DHT22;5201;48.776;9.128;2024-02-15T11:48:11;17.30;99.90
10312;DHT22;5201;48.776;9.128;2024-02-15T11:50:37;16.90;99.90
10312;DHT22;5201;48.776;9.128;2024-02-15T11:53:06;16.80;99.90
10312;DHT22;5201;48.776;9.128;2024-02-15T11:55:39;16.90;99.90
10312;DHT22;5201;48.776;9.128;2024-02-15T11:58:05;17.10;99.90
10312;DHT22;5201;48.776;9.128;2024-02-15T12:00:42;17.10;99.90
10312;DHT22;5201;48.776;9.128;2024-02-15T12:03:28;17.10;99.90
10312;DHT22;5201;48.776;9.128;2024-02-15T12:06:12;17.10;99.90
10312;DHT22;5201;48.776;9.128;2024-02-15T12:09:00;17.40;99.90
10312;DHT22;5201;48.776;9.128;2024-02-15T12:11:45;17.30;99.90
10312;DHT22;5201;48.776;9.128;2024-02-15T12:14:34;17.50;99.90
10312;DHT22;5201;48.776;9.128;2024-02-15T12:17:18;17.60;99.90
10312;DHT22;5201;48.776;9.128;2024-02-15T12:20:03;17.80;99.90
10312;DHT22;5201;48.776;9.128;2024-02-15T12:22:47;17.80;99.90
10312;DHT22;5201;48.776;9.128;2024-02-15T12:25:15;17.50;99.90
10312;DHT22;5201;48.776;9.128;2024-02-15T12:27:44;17.70;99.90
10312;DHT22;5201;48.776;9.128;2024-02-15T12:30:19;17.60;99.90
10312;DHT22;5201;48.776;9.128;2024-02-15T12:32:51;17.70;99.90
10312;DHT22;5201;48.776;9.128;2024-02-15T12:35:21;17.60;99.90
10312;DHT22;5201;48.776;9.128;2024-02-15T12:38:01;17.60;99.90
10312;DHT22;5201;48.776;9.128;2024-02-15T12:40:32;17.40;99.90
10312;DHT22;5201;48.776;9.128;2024-02-15T12:42:59;17.30;99.90
10312;DHT22;5201;48.776;9.128;2024-02-15T12:45:26;17.50;99.90
10312;DHT22;5201;48.776;9.128;2024-02-15T12:47:54;17.50;99.90
10312;DHT22;5201;48.776;9.128;2024-02-15T12:50:29;17.40;99.90
10312;DHT22;5201;48.776;9.128;2024-02-15T12:52:55;17.40;99.90
10312;DHT22;5201;48.776;9.128;2024-02-15T12:55:28;17.40;99.90
10312;DHT22;5201;48.776;9.128;2024-02-15T12:57:57;17.40;99.90
10312;DHT22;5201;48.776;9.128;2024-02-15T13:00:24;17.50;99.90
10312;DHT22;5201;48.776;9.128;2024-02-15T13:02:54;17.60;99.90
10312;DHT22;5201;48.776;9.128;2024-02-15T13:05:21;17.30;99.90
10312;DHT22;5201;48.776;9.128;2024-02-15T13:07:52;17.20;99.90
10312;DHT22;5201;48.776;9.128;2024-02-15T13:10:18;17.20;99.90
10312;DHT22;5201;48.776;9.128;2024-02-15T13:12:45;17.20;99.90
10312;DHT22;5201;48.776;9.128;2024-02-15T13:15:13;17.10;99.90
10312;DHT22;5201;48.776;9.128;2024-02-15T13:20:14;17.10;99.90
10312;DHT22;5201;48.776;9.128;2024-02-15T13:22:43;17.10;99.90
10312;DHT22;5201;48.776;9.128;2024-02-15T13:25:10;17.00;99.90
10312;DHT22;5201;48.776;9.128;2024-02-15T13:27:36;18.10;99.90
10312;DHT22;5201;48.776;9.128;2024-02-15T13:30:06;16.80;99.90
10312;DHT22;5201;48.776;9.128;2024-02-15T13:32:38;16.90;99.90
10312;DHT22;5201;48.776;9.128;2024-02-15T13:35:08;17.00;99.90
10312;DHT22;5201;48.776;9.128;2024-02-15T13:37:51;17.10;99.90
10312;DHT22;5201;48.776;9.128;2024-02-15T13:40:20;17.20;99.90
10312;DHT22;5201;48.776;9.128;2024-02-15T13:42:50;17.30;99.90
10312;DHT22;5201;48.776;9.128;2024-02-15T13:45:20;17.20;99.90
10312;DHT22;5201;48.776;9.128;2024-02-15T13:47:48;17.10;99.90
10312;DHT22;5201;48.776;9.128;2024-02-15T13:50:14;16.80;99.90
10312;DHT22;5201;48.776;9.128;2024-02-15T13:52:41;16.90;99.90
10312;DHT22;5201;48.776;9.128;2024-02-15T13:55:10;17.00;99.90
10312;DHT22;5201;48.776;9.128;2024-02-15T13:57:37;17.00;99.90
10312;DHT22;5201;48.776;9.128;2024-02-15T14:00:03;16.90;99.90
10312;DHT22;5201;48.776;9.128;2024-02-15T14:02:31;16.90;99.90
10312;DHT22;5201;48.776;9.128;2024-02-15T14:04:57;16.90;99.90
10312;DHT22;5201;48.776;9.128;2024-02-15T14:07:22;16.90;99.90
10312;DHT22;5201;48.776;9.128;2024-02-15T14:09:48;17.10;99.90
10312;DHT22;5201;48.776;9.128;2024-02-15T14:12:13;17.20;99.90
10312;DHT22;5201;48.776;9.128;2024-02-15T14:14:42;17.20;99.90
10312;DHT22;5201;48.776;9.128;2024-02-15T14:17:08;17.20;99.90
10312;DHT22;5201;48.776;9.128;2024-02-15T14:19:34;17.20;99.90
10312;DHT22;5201;48.776;9.128;2024-02-15T14:22:00;17.10;99.90
10312;DHT22;5201;48.776;9.128;2024-02-15T14:24:27;17.10;99.90
10312;DHT22;5201;48.776;9.128;2024-02-15T14:26:52;17.10;99.90
10312;DHT22;5201;48.776;9.128;2024-02-15T14:29:18;17.00;99.90
10312;DHT22;5201;48.776;9.128;2024-02-15T14:31:53;16.80;99.90
10312;DHT22;5201;48.776;9.128;2024-02-15T14:34:41;16.90;99.90
10312;DHT22;5201;48.776;9.128;2024-02-15T14:37:07;17.00;99.90
10312;DHT22;5201;48.776;9.128;2024-02-15T14:39:32;17.00;99.90
10312;DHT22;5201;48.776;9.128;2024-02-15T14:41:59;17.00;99.90
10312;DHT22;5201;48.776;9.128;2024-02-15T14:44:25;17.10;99.90
10312;DHT22;5201;48.776;9.128;2024-02-15T14:46:50;17.10;99.90
10312;DHT22;5201;48.776;9.128;2024-02-15T14:49:16;16.90;99.90
10312;DHT22;5201;48.776;9.128;2024-02-15T14:51:42;16.80;99.90
10312;DHT22;5201;48.776;9.128;2024-02-15T14:54:08;16.90;99.90
10312;DHT22;5201;48.776;9.128;2024-02-15T14:56:33;17.00;99.90
10312;DHT22;5201;48.776;9.128;2024-02-15T14:58:59;16.90;99.90
10312;DHT22;5201;48.776;9.128;2024-02-15T15:01:25;16.80;99.90
10312;DHT22;5201;48.776;9.128;2024-02-15T15:03:55;16.80;99.90
10312;DHT22;5201;48.776;9.128;2024-02-15T15:06:23;16.80;99.90
10312;DHT22;5201;48.776;9.128;2024-02-15T15:09:07;16.90;99.90
10312;DHT22;5201;48.776;9.128;2024-02-15T15:11:52;16.90;99.90
10312;DHT22;5201;48.776;9.128;2024-02-15T15:14:35;17.00;99.90
10312;DHT22;5201;48.776;9.128;2024-02-15T15:17:03;17.20;99.90
10312;DHT22;5201;48.776;9.128;2024-02-15T15:19:29;17.00;99.90
10312;DHT22;5201;48.776;9.128;2024-02-15T15:21:55;17.10;99.90
10312;DHT22;5201;48.776;9.128;2024-02-15T15:24:20;17.10;99.90
10312;DHT22;5201;48.776;9.128;2024-02-15T15:26:46;17.10;99.90
10312;DHT22;5201;48.776;9.128;2024-02-15T15:29:11;17.10;99.90
10312;DHT22;5201;48.776;9.128;2024-02-15T15:31:37;17.20;99.90
10312;DHT22;5201;48.776;9.128;2024-02-15T15:34:03;17.10;99.90
10312;DHT22;5201;48.776;9.128;2024-02-15T15:36:30;16.50;99.90
10312;DHT22;5201;48.776;9.128;2024-02-15T15:38:56;16.90;99.90
10312;DHT22;5201;48.776;9.128;2024-02-15T15:41:21;16.80;99.90
10312;DHT22;5201;48.776;9.128;2024-02-15T15:43:47;16.60;99.90
10312;DHT22;5201;48.776;9.128;2024-02-15T15:46:14;16.60;99.90
10312;DHT22;5201;48.776;9.128;2024-02-15T15:48:40;16.80;99.90
10312;DHT22;5201;48.776;9.128;2024-02-15T15:51:06;16.80;99.90
10312;DHT22;5201;48.776;9.128;2024-02-15T15:53:34;16.80;99.90
10312;DHT22;5201;48.776;9.128;2024-02-15T15:56:00;16.80;99.90
10312;DHT22;5201;48.776;9.128;2024-02-15T15:58:26;16.60;99.90
10312;DHT22;5201;48.776;9.128;2024-02-15T16:00:51;16.60;99.90
10312;DHT22;5201;48.776;9.128;2024-02-15T16:03:17;16.60;99.90